createdAt,value
2018-10-17T00:02:30.185Z,68.20
2018-10-17T00:05:04.735Z,68.40
2018-10-17T00:07:39.090Z,68.50
2018-10-17T00:10:12.701Z,68.60
2018-10-17T00:12:46.400Z,68.60
2018-10-17T00:15:19.839Z,68.60
2018-10-17T00:17:53.492Z,68.60
2018-10-17T00:20:28.157Z,68.80
2018-10-17T00:23:01.635Z,68.90
2018-10-17T00:25:35.314Z,69.20
2018-10-17T00:28:09.151Z,69.80
2018-10-17T00:30:42.738Z,69.10
2018-10-17T00:33:16.595Z,69.10
2018-10-17T00:35:50.018Z,69.10
2018-10-17T00:38:23.737Z,69.10
2018-10-17T00:40:57.297Z,69.70
2018-10-17T00:43:30.839Z,69.20
2018-10-17T00:46:05.399Z,69.20
2018-10-17T00:48:39.569Z,69.10
2018-10-17T00:51:13.372Z,69.00
2018-10-17T00:53:47.831Z,69.00
2018-10-17T00:56:21.350Z,69.10
2018-10-17T00:59:12.130Z,69.20
2018-10-17T01:01:51.992Z,69.20
2018-10-17T01:04:25.539Z,69.30
2018-10-17T01:06:59.232Z,69.60
2018-10-17T01:09:32.963Z,69.50
2018-10-17T01:12:12.827Z,69.60
2018-10-17T01:14:46.454Z,69.70
2018-10-17T01:17:19.980Z,69.70
2018-10-17T01:19:53.487Z,69.60
2018-10-17T01:22:27.053Z,69.50
2018-10-17T01:25:01.632Z,69.80
2018-10-17T01:27:35.116Z,69.80
2018-10-17T01:30:12.907Z,69.90
2018-10-17T01:32:46.368Z,69.80
2018-10-17T01:35:19.980Z,69.80
2018-10-17T01:37:53.589Z,69.80
2018-10-17T01:40:27.118Z,69.80
2018-10-17T01:43:01.334Z,70.00
2018-10-17T01:45:34.670Z,69.70
2018-10-17T01:48:08.138Z,69.80
2018-10-17T01:50:41.555Z,69.80
2018-10-17T01:53:15.115Z,70.20
2018-10-17T01:55:48.727Z,70.40
2018-10-17T01:58:22.145Z,70.20
2018-10-17T02:00:55.893Z,70.10
2018-10-17T02:03:29.385Z,70.70
2018-10-17T02:06:03.023Z,70.60
2018-10-17T02:08:36.694Z,70.90
2018-10-17T02:11:16.773Z,70.90
2018-10-17T02:13:50.338Z,70.80
2018-10-17T02:16:23.860Z,71.00
2018-10-17T02:18:57.317Z,70.90
2018-10-17T02:21:30.997Z,70.90
2018-10-17T02:24:05.445Z,70.90
2018-10-17T02:26:39.999Z,71.10
2018-10-17T02:29:13.497Z,71.00
2018-10-17T02:31:46.850Z,70.90
2018-10-17T02:34:20.434Z,70.90
2018-10-17T02:36:58.109Z,71.40
2018-10-17T02:39:32.574Z,70.70
2018-10-17T02:42:06.183Z,70.80
2018-10-17T02:44:39.702Z,70.80
2018-10-17T02:47:13.317Z,70.70
2018-10-17T02:49:53.050Z,70.70
2018-10-17T02:52:26.604Z,70.80
2018-10-17T02:55:00.161Z,70.80
2018-10-17T02:57:33.671Z,70.60
2018-10-17T03:00:08.598Z,70.60
2018-10-17T03:02:42.058Z,70.70
2018-10-17T03:05:15.788Z,70.70
2018-10-17T03:07:49.192Z,70.80
2018-10-17T03:10:22.710Z,70.90
2018-10-17T03:12:56.159Z,70.90
2018-10-17T03:15:29.649Z,71.00
2018-10-17T03:18:03.190Z,71.20
2018-10-17T03:20:36.802Z,71.50
2018-10-17T03:23:10.216Z,71.10
2018-10-17T03:25:43.808Z,71.10
2018-10-17T03:28:17.354Z,71.40
2018-10-17T03:30:50.955Z,71.10
2018-10-17T03:33:24.508Z,71.10
2018-10-17T03:35:58.240Z,71.00
2018-10-17T03:38:31.701Z,71.00
2018-10-17T03:41:05.552Z,71.10
2018-10-17T03:43:39.191Z,71.10
2018-10-17T03:46:13.093Z,71.20
2018-10-17T03:48:46.847Z,71.30
2018-10-17T03:51:27.150Z,71.40
2018-10-17T03:54:00.547Z,71.50
2018-10-17T03:56:34.214Z,71.60
2018-10-17T03:59:07.800Z,71.70
2018-10-17T04:01:41.263Z,72.00
2018-10-17T04:04:14.848Z,71.90
2018-10-17T04:06:48.520Z,72.30
2018-10-17T04:09:22.958Z,72.30
2018-10-17T04:11:56.580Z,72.30
2018-10-17T04:14:30.116Z,72.30
2018-10-17T04:17:03.644Z,72.40
2018-10-17T04:19:37.053Z,72.50
2018-10-17T04:22:17.002Z,72.50
2018-10-17T04:24:50.588Z,72.30
2018-10-17T04:27:24.036Z,72.20
2018-10-17T04:29:57.656Z,72.30
2018-10-17T04:32:31.102Z,72.30
2018-10-17T04:35:04.847Z,72.50
2018-10-17T04:37:44.597Z,72.70
2018-10-17T04:40:18.213Z,72.90
2018-10-17T04:42:57.924Z,72.80
2018-10-17T04:45:31.435Z,72.70
2018-10-17T04:48:05.333Z,72.70
2018-10-17T04:50:38.927Z,72.80
2018-10-17T04:53:18.769Z,72.70
2018-10-17T04:55:52.348Z,72.50
2018-10-17T04:58:25.977Z,72.70
2018-10-17T05:01:05.707Z,72.80
2018-10-17T05:03:39.024Z,72.90
2018-10-17T05:06:12.483Z,73.10
2018-10-17T05:08:45.967Z,73.60
2018-10-17T05:11:19.518Z,73.50
2018-10-17T05:13:53.502Z,73.50
2018-10-17T05:16:33.461Z,73.70
2018-10-17T05:19:13.607Z,73.60
2018-10-17T05:21:47.126Z,73.50
2018-10-17T05:24:21.616Z,73.50
2018-10-17T05:26:55.252Z,73.40
2018-10-17T05:29:28.744Z,73.40
2018-10-17T05:32:02.230Z,73.30
2018-10-17T05:34:42.160Z,73.20
2018-10-17T05:37:15.976Z,73.10
2018-10-17T05:39:49.250Z,73.90
2018-10-17T05:42:29.590Z,73.00
2018-10-17T05:45:03.317Z,73.00
2018-10-17T05:47:37.989Z,72.90
2018-10-17T05:50:12.469Z,72.90
2018-10-17T05:52:45.957Z,72.80
2018-10-17T05:55:19.767Z,73.00
2018-10-17T05:57:53.661Z,72.90
2018-10-17T06:00:33.561Z,72.60
2018-10-17T06:03:08.248Z,72.80
2018-10-17T06:05:41.786Z,72.80
2018-10-17T06:08:16.529Z,73.00
2018-10-17T06:10:49.976Z,73.00
2018-10-17T06:13:23.517Z,73.00
2018-10-17T06:15:58.121Z,72.90
2018-10-17T06:18:31.537Z,73.10
2018-10-17T06:21:05.537Z,73.00
2018-10-17T06:23:39.180Z,73.00
2018-10-17T06:26:12.689Z,72.90
2018-10-17T06:28:52.403Z,73.10
2018-10-17T06:31:25.947Z,73.20
2018-10-17T06:33:59.452Z,73.30
2018-10-17T06:36:33.105Z,73.40
2018-10-17T06:39:08.001Z,73.40
2018-10-17T06:41:41.370Z,73.40
2018-10-17T06:44:14.849Z,73.50
2018-10-17T06:46:48.235Z,73.60
2018-10-17T06:49:22.046Z,73.80
2018-10-17T06:51:55.700Z,74.20
2018-10-17T06:54:30.425Z,74.30
2018-10-17T06:57:04.179Z,74.50
2018-10-17T06:59:38.761Z,74.50
2018-10-17T07:02:12.311Z,75.00
2018-10-17T07:04:45.905Z,75.20
2018-10-17T07:07:19.718Z,75.40
2018-10-17T07:09:53.140Z,75.30
2018-10-17T07:12:26.783Z,75.40
2018-10-17T07:15:00.356Z,75.40
2018-10-17T07:17:34.340Z,75.20
2018-10-17T07:20:14.139Z,75.20
2018-10-17T07:22:47.626Z,75.30
2018-10-17T07:25:21.198Z,75.30
2018-10-17T07:27:54.704Z,75.30
2018-10-17T07:30:28.181Z,75.40
2018-10-17T07:33:01.904Z,75.30
2018-10-17T07:35:41.810Z,75.30
2018-10-17T07:38:16.502Z,75.30
2018-10-17T07:40:51.560Z,75.40
2018-10-17T07:43:26.125Z,75.50
2018-10-17T07:45:59.765Z,75.70
2018-10-17T07:48:33.536Z,75.70
2018-10-17T07:51:13.363Z,76.00
2018-10-17T07:53:47.845Z,76.10
2018-10-17T07:56:21.398Z,76.40
2018-10-17T07:59:01.353Z,76.80
2018-10-17T08:01:41.282Z,76.90
2018-10-17T08:04:14.897Z,76.70
2018-10-17T08:06:49.404Z,76.50
2018-10-17T08:09:22.915Z,76.50
2018-10-17T08:11:56.427Z,76.40
2018-10-17T08:14:31.023Z,76.20
2018-10-17T08:17:11.733Z,76.10
2018-10-17T08:19:45.369Z,76.30
2018-10-17T08:22:20.059Z,76.40
2018-10-17T08:24:53.465Z,76.40
2018-10-17T08:27:27.056Z,76.60
2018-10-17T08:30:00.530Z,76.80
2018-10-17T08:32:34.061Z,76.90
2018-10-17T08:35:08.013Z,77.30
2018-10-17T08:37:41.762Z,77.30
2018-10-17T08:40:15.132Z,77.30
2018-10-17T08:42:54.984Z,77.50
2018-10-17T08:45:34.785Z,77.40
2018-10-17T08:48:08.346Z,77.30
2018-10-17T08:50:41.818Z,77.10
2018-10-17T08:53:15.294Z,76.70
2018-10-17T08:55:55.348Z,76.50
2018-10-17T08:58:30.866Z,75.80
2018-10-17T09:01:04.698Z,75.30
2018-10-17T09:03:38.145Z,74.10
2018-10-17T09:06:12.770Z,74.30
2018-10-17T09:08:46.163Z,74.10
2018-10-17T09:11:26.190Z,74.00
2018-10-17T09:13:59.690Z,73.50
2018-10-17T09:16:35.314Z,73.20
2018-10-17T09:19:10.091Z,73.50
2018-10-17T09:21:50.413Z,73.80
2018-10-17T09:24:23.653Z,72.80
2018-10-17T09:26:57.165Z,73.00
2018-10-17T09:29:30.762Z,72.70
2018-10-17T09:32:04.597Z,72.80
2018-10-17T09:34:39.114Z,73.40
2018-10-17T09:37:12.595Z,73.90
2018-10-17T09:39:46.153Z,71.50
2018-10-17T09:42:19.755Z,69.50
2018-10-17T09:44:53.352Z,68.70
2018-10-17T09:47:27.705Z,68.60
2018-10-17T09:50:08.509Z,69.10
2018-10-17T09:52:48.706Z,69.30
2018-10-17T09:55:22.202Z,69.10
2018-10-17T09:57:55.758Z,67.50
2018-10-17T10:01:36.698Z,68.00
2018-10-17T10:04:10.207Z,67.90
2018-10-17T10:06:43.729Z,67.40
2018-10-17T10:09:17.094Z,66.50
2018-10-17T10:11:50.667Z,66.90
2018-10-17T10:14:30.594Z,67.00
2018-10-17T10:17:10.637Z,66.70
2018-10-17T10:19:44.238Z,66.20
2018-10-17T10:22:17.919Z,66.00
2018-10-17T10:24:51.574Z,65.70
2018-10-17T10:27:25.257Z,65.60
2018-10-17T10:29:58.880Z,65.30
2018-10-17T10:32:32.463Z,65.00
2018-10-17T10:35:06.141Z,64.90
2018-10-17T10:37:39.697Z,63.80
2018-10-17T10:40:13.467Z,63.70
2018-10-17T10:42:53.504Z,63.20
2018-10-17T10:45:28.050Z,63.60
2018-10-17T10:48:04.842Z,63.70
2018-10-17T10:50:38.294Z,63.40
2018-10-17T10:53:11.963Z,64.40
2018-10-17T10:55:45.633Z,63.00
2018-10-17T10:58:19.345Z,63.20
2018-10-17T11:00:52.687Z,62.70
2018-10-17T11:03:32.547Z,62.40
2018-10-17T11:06:12.485Z,62.80
2018-10-17T11:08:52.664Z,60.70
2018-10-17T11:11:26.277Z,60.20
2018-10-17T11:13:59.762Z,61.70
2018-10-17T11:16:39.681Z,61.50
2018-10-17T11:19:19.622Z,61.00
2018-10-17T11:21:59.559Z,61.50
2018-10-17T11:24:39.434Z,60.60
2018-10-17T11:27:13.029Z,60.20
2018-10-17T11:29:52.879Z,59.50
2018-10-17T11:32:32.788Z,60.30
2018-10-17T11:35:07.858Z,60.10
2018-10-17T11:37:41.398Z,59.80
2018-10-17T11:40:15.164Z,59.30
2018-10-17T11:42:49.681Z,59.20
2018-10-17T11:45:23.306Z,58.50
2018-10-17T11:47:56.821Z,58.40
2018-10-17T11:50:30.433Z,58.40
2018-10-17T11:53:10.518Z,58.20
2018-10-17T11:55:43.901Z,57.30
2018-10-17T11:58:17.317Z,58.30
2018-10-17T12:00:51.781Z,57.90
2018-10-17T12:03:31.810Z,57.60
2018-10-17T12:06:05.450Z,57.50
2018-10-17T12:08:45.236Z,57.10
2018-10-17T12:11:25.398Z,57.00
2018-10-17T12:13:58.978Z,57.30
2018-10-17T12:16:32.617Z,57.60
2018-10-17T12:19:06.149Z,58.40
2018-10-17T12:21:39.884Z,58.80
2018-10-17T12:24:13.160Z,58.20
2018-10-17T12:26:53.139Z,56.80
2018-10-17T12:29:33.032Z,56.90
2018-10-17T12:32:06.623Z,57.10
2018-10-17T12:34:40.131Z,57.00
2018-10-17T12:37:20.147Z,57.00
2018-10-17T12:39:53.690Z,56.00
2018-10-17T12:42:27.061Z,56.20
2018-10-17T12:45:07.163Z,55.90
2018-10-17T12:47:46.950Z,55.50
2018-10-17T12:50:22.268Z,56.10
2018-10-17T12:52:55.922Z,54.40
2018-10-17T12:55:35.882Z,54.50
2018-10-17T12:58:09.462Z,55.00
2018-10-17T13:00:43.068Z,55.10
2018-10-17T13:03:16.669Z,54.20
2018-10-17T13:05:50.300Z,54.10
2018-10-17T13:08:30.294Z,54.00
2018-10-17T13:11:04.071Z,53.60
2018-10-17T13:13:43.992Z,53.80
2018-10-17T13:16:17.488Z,54.20
2018-10-17T13:18:51.045Z,55.80
2018-10-17T13:21:24.423Z,55.40
2018-10-17T13:24:04.787Z,52.10
2018-10-17T13:26:44.910Z,50.60
2018-10-17T13:29:18.622Z,50.40
2018-10-17T13:31:52.032Z,50.20
2018-10-17T13:34:32.197Z,47.70
2018-10-17T13:37:07.245Z,46.60
2018-10-17T13:39:47.102Z,45.20
2018-10-17T13:42:27.513Z,46.20
2018-10-17T13:45:02.014Z,47.10
2018-10-17T13:47:35.556Z,45.80
2018-10-17T13:50:15.511Z,45.30
2018-10-17T13:52:49.035Z,45.30
2018-10-17T13:55:22.703Z,45.90
2018-10-17T13:58:02.655Z,45.60
2018-10-17T14:00:36.121Z,45.70
2018-10-17T14:03:10.492Z,45.20
2018-10-17T14:05:44.146Z,45.80
2018-10-17T14:08:17.561Z,43.60
2018-10-17T14:10:51.264Z,43.90
2018-10-17T14:13:31.035Z,44.10
2018-10-17T14:16:10.901Z,43.30
2018-10-17T14:18:44.282Z,43.90
2018-10-17T14:21:24.345Z,44.60
2018-10-17T14:23:57.974Z,45.00
2018-10-17T14:26:31.433Z,44.20
2018-10-17T14:29:04.986Z,44.20
2018-10-17T14:31:38.724Z,44.20
2018-10-17T14:34:12.217Z,45.00
2018-10-17T14:36:52.249Z,45.90
2018-10-17T14:39:25.796Z,46.90
2018-10-17T14:41:59.346Z,47.40
2018-10-17T14:44:37.151Z,48.20
2018-10-17T14:47:17.111Z,49.00
2018-10-17T14:49:50.518Z,49.10
2018-10-17T14:52:25.054Z,49.40
2018-10-17T14:54:59.550Z,49.70
2018-10-17T14:57:33.164Z,50.20
2018-10-17T15:00:09.141Z,50.50
2018-10-17T15:02:43.409Z,50.80
2018-10-17T15:05:23.169Z,51.20
2018-10-17T15:07:56.607Z,51.40
2018-10-17T15:10:30.303Z,51.60
2018-10-17T15:13:03.938Z,51.80
2018-10-17T15:15:44.976Z,52.20
2018-10-17T15:18:18.401Z,52.50
2018-10-17T15:20:52.198Z,52.60
2018-10-17T15:23:26.650Z,52.90
2018-10-17T15:26:00.073Z,53.30
2018-10-17T15:28:39.955Z,53.40
2018-10-17T15:31:19.994Z,53.60
2018-10-17T15:33:53.478Z,53.70
2018-10-17T15:36:33.163Z,53.90
2018-10-17T15:39:10.692Z,54.00
2018-10-17T15:41:50.462Z,54.20
2018-10-17T15:44:24.101Z,54.30
2018-10-17T15:46:58.008Z,54.50
2018-10-17T15:49:31.592Z,55.20
2018-10-17T15:52:05.053Z,54.90
2018-10-17T15:54:44.899Z,55.10
2018-10-17T15:57:24.922Z,55.50
2018-10-17T15:59:59.580Z,55.70
2018-10-17T16:02:39.753Z,55.90
2018-10-17T16:05:19.464Z,56.10
2018-10-17T16:07:59.072Z,56.20
2018-10-17T16:10:38.856Z,56.60
2018-10-17T16:13:18.907Z,56.60
2018-10-17T16:15:58.693Z,56.60
2018-10-17T16:18:32.312Z,56.60
2018-10-17T16:21:06.063Z,56.80
2018-10-17T16:23:39.796Z,57.00
2018-10-17T16:26:13.244Z,57.20
2018-10-17T16:28:46.681Z,58.30
2018-10-17T16:31:26.508Z,57.90
2018-10-17T16:34:00.109Z,58.20
2018-10-17T16:36:33.749Z,58.20
2018-10-17T16:39:09.062Z,58.20
2018-10-17T16:41:42.482Z,58.40
2018-10-17T16:44:17.034Z,58.70
2018-10-17T16:46:50.486Z,59.00
2018-10-17T16:49:24.143Z,59.00
2018-10-17T16:52:03.867Z,59.10
2018-10-17T16:54:37.458Z,59.30
2018-10-17T16:57:11.854Z,59.60
2018-10-17T16:59:45.366Z,59.90
2018-10-17T17:02:19.846Z,60.10
2018-10-17T17:04:59.731Z,60.00
2018-10-17T17:07:34.177Z,60.20
2018-10-17T17:10:08.624Z,60.40
2018-10-17T17:12:42.355Z,60.20
2018-10-17T17:15:22.253Z,60.30
2018-10-17T17:18:02.263Z,60.50
2018-10-17T17:20:42.126Z,60.60
2018-10-17T17:23:15.641Z,60.90
2018-10-17T17:25:49.074Z,60.80
2018-10-17T17:28:23.603Z,61.10
2018-10-17T17:30:57.162Z,61.30
2018-10-17T17:33:31.654Z,61.60
2018-10-17T17:36:11.694Z,61.70
2018-10-17T17:38:51.561Z,61.70
2018-10-17T17:41:25.435Z,62.00
2018-10-17T17:43:58.860Z,62.30
2018-10-17T17:46:33.481Z,62.60
2018-10-17T17:49:13.542Z,62.60
2018-10-17T17:51:46.978Z,62.40
2018-10-17T17:54:20.383Z,62.00
2018-10-17T17:56:53.847Z,61.90
2018-10-17T17:59:28.324Z,62.00
2018-10-17T18:02:01.934Z,62.10
2018-10-17T18:04:35.473Z,62.00
2018-10-17T18:07:09.259Z,62.30
2018-10-17T18:09:42.927Z,62.60
2018-10-17T18:12:16.512Z,62.80
2018-10-17T18:14:50.061Z,63.70
2018-10-17T18:17:23.630Z,63.90
2018-10-17T18:19:57.437Z,63.30
2018-10-17T18:22:31.077Z,63.50
2018-10-17T18:25:05.673Z,63.60
2018-10-17T18:27:40.513Z,64.40
2018-10-17T18:30:20.328Z,63.70
2018-10-17T18:32:54.553Z,63.70
2018-10-17T18:35:28.211Z,63.50
2018-10-17T18:38:08.290Z,63.50
2018-10-17T18:40:42.764Z,63.50
2018-10-17T18:43:17.312Z,63.40
2018-10-17T18:45:57.163Z,63.50
2018-10-17T18:48:30.837Z,63.50
2018-10-17T18:51:10.856Z,63.70
2018-10-17T18:53:44.399Z,63.60
2018-10-17T18:56:24.302Z,63.50
2018-10-17T18:59:04.258Z,63.50
2018-10-17T19:01:38.114Z,63.70
2018-10-17T19:04:11.753Z,63.60
2018-10-17T19:06:45.329Z,63.50
2018-10-17T19:09:19.081Z,63.70
2018-10-17T19:11:52.836Z,63.60
2018-10-17T19:14:26.362Z,63.50
2018-10-17T19:16:59.813Z,63.30
2018-10-17T19:19:33.329Z,63.50
2018-10-17T19:22:06.875Z,63.40
2018-10-17T19:24:47.029Z,63.60
2018-10-17T19:27:26.693Z,63.60
2018-10-17T19:30:00.268Z,63.50
2018-10-17T19:32:33.797Z,63.60
2018-10-17T19:35:08.476Z,63.70
2018-10-17T19:37:48.265Z,63.90
2018-10-17T19:40:22.008Z,64.20
2018-10-17T19:42:55.675Z,64.50
2018-10-17T19:45:29.144Z,64.60
2018-10-17T19:48:02.727Z,64.70
2018-10-17T19:50:36.322Z,64.70
2018-10-17T19:53:09.987Z,64.70
2018-10-17T19:55:43.669Z,64.60
2018-10-17T19:58:17.114Z,64.50
2018-10-17T20:00:50.954Z,64.40
2018-10-17T20:03:24.464Z,64.50
2018-10-17T20:05:57.984Z,64.50
2018-10-17T20:08:31.554Z,64.50
2018-10-17T20:11:11.637Z,64.60
2018-10-17T20:13:45.437Z,64.00
2018-10-17T20:16:19.039Z,64.40
2018-10-17T20:18:52.631Z,64.50
2018-10-17T20:21:32.575Z,64.60
2018-10-17T20:24:05.977Z,64.60
2018-10-17T20:26:39.570Z,65.40
2018-10-17T20:29:13.075Z,64.80
2018-10-17T20:31:46.610Z,64.80
2018-10-17T20:34:20.039Z,64.80
2018-10-17T20:36:53.585Z,65.10
2018-10-17T20:39:26.986Z,65.10
2018-10-17T20:42:00.592Z,65.10
2018-10-17T20:44:34.185Z,65.20
2018-10-17T20:47:07.838Z,65.00
2018-10-17T20:49:42.301Z,65.00
2018-10-17T20:52:15.845Z,65.00
2018-10-17T20:54:49.275Z,65.10
2018-10-17T20:57:22.793Z,65.50
2018-10-17T20:59:56.383Z,65.60
2018-10-17T21:02:29.920Z,66.40
2018-10-17T21:05:04.810Z,65.60
2018-10-17T21:07:38.221Z,65.50
2018-10-17T21:10:18.170Z,66.00
2018-10-17T21:12:51.805Z,65.60
2018-10-17T21:15:25.422Z,65.70
2018-10-17T21:18:05.324Z,65.80
2018-10-17T21:20:39.766Z,65.90
2018-10-17T21:23:13.581Z,65.90
2018-10-17T21:25:47.001Z,65.90
2018-10-17T21:28:21.416Z,66.00
2018-10-17T21:30:56.142Z,66.20
2018-10-17T21:33:29.772Z,66.20
2018-10-17T21:36:09.694Z,66.30
2018-10-17T21:38:43.298Z,66.30
2018-10-17T21:41:23.129Z,66.20
2018-10-17T21:43:57.551Z,66.20
2018-10-17T21:46:36.253Z,66.30
2018-10-17T21:49:10.233Z,66.50
2018-10-17T21:51:43.754Z,66.50
2018-10-17T21:54:18.184Z,66.80
2018-10-17T21:56:57.739Z,66.80
2018-10-17T21:59:31.390Z,66.90
2018-10-17T22:02:05.197Z,67.00
2018-10-17T22:04:39.549Z,67.00
2018-10-17T22:07:13.094Z,67.10
2018-10-17T22:09:53.182Z,67.30
2018-10-17T22:12:26.735Z,67.50
2018-10-17T22:15:00.349Z,67.50
2018-10-17T22:17:34.709Z,67.70
2018-10-17T22:20:08.243Z,67.60
2018-10-17T22:22:41.730Z,67.80
2018-10-17T22:25:15.395Z,68.50
2018-10-17T22:27:48.805Z,68.00
2018-10-17T22:30:22.186Z,68.00
2018-10-17T22:32:55.800Z,68.10
2018-10-17T22:35:35.472Z,68.20
2018-10-17T22:38:09.090Z,68.40
2018-10-17T22:40:42.593Z,68.50
2018-10-17T22:43:16.096Z,68.60
2018-10-17T22:45:50.470Z,68.70
2018-10-17T22:48:24.057Z,68.90
2018-10-17T22:50:57.548Z,68.80
2018-10-17T22:53:31.105Z,68.80
2018-10-17T22:56:04.750Z,68.70
2018-10-17T22:58:38.116Z,68.80
2018-10-17T23:01:11.774Z,68.80
2018-10-17T23:03:51.733Z,68.90
2018-10-17T23:06:25.272Z,69.10
2018-10-17T23:08:58.809Z,69.30
2018-10-17T23:11:32.297Z,69.40
2018-10-17T23:14:07.346Z,69.40
2018-10-17T23:16:47.328Z,69.40
2018-10-17T23:19:20.785Z,69.60
2018-10-17T23:21:54.299Z,69.50
2018-10-17T23:24:27.770Z,69.70
2018-10-17T23:27:01.269Z,69.80
2018-10-17T23:29:34.959Z,69.80
2018-10-17T23:32:08.526Z,70.10
2018-10-17T23:34:46.084Z,70.00
2018-10-17T23:37:19.485Z,70.00
2018-10-17T23:39:53.709Z,70.10
2018-10-17T23:42:27.292Z,70.10
2018-10-17T23:45:00.760Z,70.50
2018-10-17T23:47:34.528Z,70.10
2018-10-17T23:50:09.033Z,70.10
2018-10-17T23:52:42.436Z,70.20
2018-10-17T23:55:15.981Z,70.20
2018-10-17T23:57:50.394Z,70.10
